Time;durP1;ratioP1;P1;durP2;ratioP2;P2;SDS_P1;SDS_P2;PMS_P1;PMS_P2;Temp;Humidity;BMP_temperature;BMP_pressure;BME280_temperature;BME280_humidity;BME280_pressure;Samples;Min_cycle;Max_cycle;Signal;HPM_P1;HPM_P2
2022/04/07 00:00:13;;;;;;;17.00;5.70;;;;;;;6.27;75.28;99093.30;25064;1319;3026218;-68
2022/04/07 00:02:42;;;;;;;15.50;5.90;;;;;;;6.52;73.99;99095.90;25151;1318;3051088;-68
2022/04/07 00:05:11;;;;;;;16.30;7.10;;;;;;;6.49;74.05;99094.33;25093;1318;3056002;-66
2022/04/07 00:07:40;;;;;;;25.80;9.60;;;;;;;6.29;74.75;99090.96;25078;1318;3055933;-66
2022/04/07 00:10:10;;;;;;;21.50;8.60;;;;;;;6.12;75.38;99084.30;25141;1315;3026379;-69
2022/04/07 00:12:39;;;;;;;19.80;7.60;;;;;;;5.97;76.02;99086.23;25082;1317;3049367;-65
2022/04/07 00:15:09;;;;;;;14.20;6.70;;;;;;;5.88;76.31;99083.86;25072;1319;3026093;-65
2022/04/07 00:17:39;;;;;;;12.10;5.20;;;;;;;5.71;77.01;99092.83;25085;1318;3027154;-68
2022/04/07 00:20:09;;;;;;;13.30;4.60;;;;;;;6.04;76.27;99094.41;25073;1318;3026266;-68
2022/04/07 00:22:39;;;;;;;13.20;5.70;;;;;;;6.19;75.43;99095.27;25090;1319;3052508;-65
2022/04/07 00:25:09;;;;;;;12.40;6.20;;;;;;;5.99;76.01;99098.66;25068;1319;3026560;-68
2022/04/07 00:27:40;;;;;;;12.50;6.30;;;;;;;5.87;76.30;99092.79;25053;1316;3026501;-65
2022/04/07 00:30:13;;;;;;;11.70;6.70;;;;;;;5.71;76.82;99096.80;25017;1316;3026882;-70
2022/04/07 00:32:43;;;;;;;12.60;6.80;;;;;;;5.48;77.76;99101.15;25004;1316;3050930;-64
2022/04/07 00:35:12;;;;;;;13.00;5.10;;;;;;;5.29;78.85;99110.51;25065;1318;3026408;-64
2022/04/07 00:37:43;;;;;;;13.10;6.70;;;;;;;5.59;78.05;99106.38;25099;1316;3054694;-66
2022/04/07 00:40:12;;;;;;;12.70;5.90;;;;;;;5.74;77.19;99104.30;25055;1318;3026561;-65
2022/04/07 00:42:48;;;;;;;12.80;6.50;;;;;;;5.69;77.01;99101.94;24989;1319;3026398;-65
2022/04/07 00:45:36;;;;;;;12.90;6.60;;;;;;;5.52;77.70;99100.47;25054;1317;3051849;-66
2022/04/07 00:48:06;;;;;;;15.50;7.80;;;;;;;5.25;78.93;99100.64;25109;1316;3028348;-64
2022/04/07 00:50:35;;;;;;;14.60;7.70;;;;;;;5.11;79.51;99104.71;25062;1316;3026542;-65
2022/04/07 00:53:06;;;;;;;15.60;6.70;;;;;;;5.00;80.35;99102.41;25017;1319;3051462;-67
2022/04/07 00:55:37;;;;;;;15.30;6.50;;;;;;;5.36;79.19;99100.14;25043;1318;3026442;-63
2022/04/07 00:58:07;;;;;;;18.10;7.00;;;;;;;5.67;77.74;99088.15;25078;1316;3026742;-66
2022/04/07 01:00:36;;;;;;;14.70;7.20;;;;;;;5.54;77.61;99097.58;25011;1318;3050834;-65
2022/04/07 01:03:05;;;;;;;20.70;7.00;;;;;;;5.39;78.21;99096.55;25058;1316;3026248;-66
2022/04/07 01:05:36;;;;;;;15.30;8.00;;;;;;;5.05;79.17;99107.03;24998;1316;3070140;-68
2022/04/07 01:08:06;;;;;;;18.70;8.30;;;;;;;4.81;80.50;99110.16;25054;1319;3026809;-65
2022/04/07 01:10:37;;;;;;;16.10;6.70;;;;;;;4.71;81.53;99103.14;25053;1319;3054255;-67
2022/04/07 01:13:06;;;;;;;17.80;8.30;;;;;;;5.18;79.78;99103.35;25092;1319;3026863;-64
2022/04/07 01:15:55;;;;;;;17.90;9.10;;;;;;;5.36;79.02;99102.58;25045;1318;3048134;-63
2022/04/07 01:18:24;;;;;;;21.00;10.20;;;;;;;5.23;79.19;99101.25;25055;1318;3026618;-67
2022/04/07 01:20:53;;;;;;;40.80;16.80;;;;;;;5.07;79.76;99107.33;25038;1316;3071193;-66
2022/04/07 01:23:22;;;;;;;56.40;21.20;;;;;;;4.81;80.84;99114.52;25050;1319;3026967;-68
2022/04/07 01:25:51;;;;;;;46.20;15.60;;;;;;;4.70;81.12;99106.99;25019;1318;3053102;-67
2022/04/07 01:28:21;;;;;;;30.10;12.50;;;;;;;4.99;81.00;99105.95;25027;1318;3028506;-65
2022/04/07 01:30:50;;;;;;;35.90;14.80;;;;;;;4.89;80.53;99117.44;25090;1317;3026595;-62
2022/04/07 01:33:20;;;;;;;33.20;14.20;;;;;;;4.93;80.62;99104.62;25023;1318;3053163;-66
2022/04/07 01:35:50;;;;;;;40.80;17.30;;;;;;;4.93;80.40;99105.15;25062;1318;3028339;-64
2022/04/07 01:38:20;;;;;;;44.10;18.50;;;;;;;4.88;80.18;99104.12;25040;1318;3027522;-66
2022/04/07 01:40:49;;;;;;;37.10;12.30;;;;;;;4.76;80.52;99111.59;25008;1316;3026322;-62
2022/04/07 01:43:18;;;;;;;31.80;14.70;;;;;;;4.90;80.40;99115.13;25083;1318;3026485;-65
2022/04/07 01:45:47;;;;;;;19.80;10.40;;;;;;;4.98;79.87;99100.24;25011;1318;3048604;-63
2022/04/07 01:48:16;;;;;;;22.40;11.70;;;;;;;4.85;80.02;99104.81;25082;1318;3026379;-67
2022/04/07 01:50:46;;;;;;;24.90;14.10;;;;;;;4.50;80.89;99118.91;25090;1318;3070821;-67
2022/04/07 01:53:15;;;;;;;30.20;16.50;;;;;;;4.28;82.09;99127.78;24996;1318;3026718;-67
2022/04/07 01:55:44;;;;;;;29.50;12.20;;;;;;;4.15;82.94;99127.59;25056;1316;3027522;-63
2022/04/07 01:58:16;;;;;;;36.70;17.10;;;;;;;4.64;81.43;99117.65;25014;1315;3070410;-68
2022/04/07 02:00:45;;;;;;;33.90;17.30;;;;;;;4.53;81.23;99130.60;25069;1316;3026122;-65
2022/04/07 02:03:14;;;;;;;24.60;13.80;;;;;;;4.38;81.89;99125.65;25069;1316;3026879;-70
2022/04/07 02:05:43;;;;;;;43.60;21.70;;;;;;;4.22;82.13;99132.16;25000;1315;3026326;-66
2022/04/07 02:08:13;;;;;;;27.60;14.10;;;;;;;4.09;82.90;99124.39;25061;1319;3051104;-65
2022/04/07 02:10:56;;;;;;;21.20;11.40;;;;;;;3.88;83.91;99121.55;25051;1318;3055029;-61
2022/04/07 02:13:25;;;;;;;23.70;13.50;;;;;;;4.48;83.02;99120.05;25017;1315;3026899;-64
2022/04/07 02:16:15;;;;;;;26.80;14.00;;;;;;;4.45;82.22;99117.39;25044;1318;3049274;-64
2022/04/07 02:18:44;;;;;;;31.30;14.90;;;;;;;4.31;82.41;99123.66;25055;1316;3026330;-66
2022/04/07 02:21:13;;;;;;;23.70;14.50;;;;;;;4.02;83.55;99127.60;25080;1315;3026652;-67
2022/04/07 02:23:42;;;;;;;19.30;11.80;;;;;;;3.94;84.14;99130.70;25058;1315;3049062;-65
2022/04/07 02:26:12;;;;;;;22.30;12.10;;;;;;;4.00;84.73;99117.63;25039;1315;3026361;-66
2022/04/07 02:28:43;;;;;;;20.50;11.40;;;;;;;4.47;83.03;99112.98;25049;1319;3069241;-64
2022/04/07 02:31:12;;;;;;;24.90;12.80;;;;;;;4.50;82.24;99112.50;25054;1319;3026531;-68
2022/04/07 02:33:41;;;;;;;22.60;14.20;;;;;;;4.46;82.06;99117.17;25000;1316;3026945;-64
2022/04/07 02:36:13;;;;;;;19.80;13.00;;;;;;;4.12;83.31;99124.77;25047;1315;3027497;-67
2022/04/07 02:38:43;;;;;;;21.10;12.90;;;;;;;4.10;83.88;99118.25;25082;1316;3026878;-64
2022/04/07 02:41:12;;;;;;;18.10;10.20;;;;;;;4.13;83.63;99125.44;25012;1315;3026362;-64
2022/04/07 02:43:43;;;;;;;21.70;12.40;;;;;;;4.47;82.95;99125.98;25081;1315;3053130;-68
2022/04/07 02:46:12;;;;;;;20.10;12.70;;;;;;;4.67;81.81;99124.63;25048;1316;3029611;-69
2022/04/07 02:48:41;;;;;;;25.30;15.30;;;;;;;4.56;81.67;99123.03;25016;1316;3026388;-64
2022/04/07 02:51:10;;;;;;;27.20;15.90;;;;;;;4.34;82.48;99121.48;25071;1315;3026787;-62
2022/04/07 02:53:39;;;;;;;36.40;19.80;;;;;;;4.27;82.73;99127.81;24993;1315;3026191;-66
2022/04/07 02:56:08;;;;;;;27.20;13.90;;;;;;;4.09;83.46;99131.84;25095;1315;3051364;-72
2022/04/07 02:58:41;;;;;;;33.30;14.50;;;;;;;4.54;82.66;99127.10;25335;1315;3027494;-62
2022/04/07 03:01:14;;;;;;;45.30;20.30;;;;;;;4.85;80.89;99123.36;25381;1315;3026779;-63
2022/04/07 03:03:43;;;;;;;33.20;16.80;;;;;;;4.61;81.20;99127.98;25266;1315;3052937;-61
2022/04/07 03:06:12;;;;;;;32.10;17.70;;;;;;;4.57;81.76;99126.08;25021;1315;3027854;-67
2022/04/07 03:08:43;;;;;;;32.80;17.80;;;;;;;4.32;82.23;99122.95;25079;1315;3059531;-67
2022/04/07 03:11:32;;;;;;;20.00;12.60;;;;;;;3.98;83.47;99132.42;25082;1318;3049895;-63
2022/04/07 03:14:01;;;;;;;25.20;14.00;;;;;;;4.40;82.78;99126.77;25129;1315;3026138;-66
2022/04/07 03:16:49;;;;;;;28.80;15.70;;;;;;;4.69;81.18;99124.89;24993;1315;3056926;-65
2022/04/07 03:19:24;;;;;;;24.00;15.20;;;;;;;4.48;81.46;99138.94;25091;1315;3051086;-68
2022/04/07 03:22:00;;;;;;;25.90;16.80;;;;;;;4.35;82.24;99130.81;25031;1315;3054509;-64
2022/04/07 03:24:31;;;;;;;28.40;17.70;;;;;;;4.26;82.58;99137.92;25088;1316;3026323;-62
2022/04/07 03:27:01;;;;;;;22.50;14.30;;;;;;;4.31;82.91;99136.14;25014;1315;3027047;-64
2022/04/07 03:29:30;;;;;;;21.40;13.90;;;;;;;4.54;82.04;99127.77;25066;1315;3026752;-64
2022/04/07 03:32:00;;;;;;;27.80;14.00;;;;;;;4.89;80.65;99123.72;25016;1315;3026314;-66
2022/04/07 03:34:29;;;;;;;25.10;15.40;;;;;;;4.79;80.49;99128.47;25076;1321;3069458;-66
2022/04/07 03:37:00;;;;;;;25.10;16.50;;;;;;;4.51;81.52;99136.22;25078;1315;3027268;-67
2022/04/07 03:39:30;;;;;;;32.70;17.20;;;;;;;4.28;82.52;99143.58;25034;1315;3027065;-65
2022/04/07 03:41:59;;;;;;;21.60;12.50;;;;;;;4.20;83.42;99139.36;25027;1318;3070806;-66
2022/04/07 03:44:28;;;;;;;19.40;11.80;;;;;;;4.57;82.03;99142.05;25038;1316;3026331;-64
2022/04/07 03:46:57;;;;;;;30.30;15.80;;;;;;;4.85;80.72;99147.83;25057;1315;3053302;-65
2022/04/07 03:49:46;;;;;;;30.30;16.70;;;;;;;4.83;80.42;99140.80;25019;1317;3068666;-63
2022/04/07 03:52:15;;;;;;;26.70;17.30;;;;;;;4.51;81.51;99144.89;25040;1318;3026294;-63
2022/04/07 03:54:44;;;;;;;29.70;18.40;;;;;;;4.47;82.18;99139.33;25089;1318;3053140;-68
2022/04/07 03:57:13;;;;;;;23.50;13.20;;;;;;;4.57;82.24;99145.16;25005;1315;3026518;-68
2022/04/07 03:59:43;;;;;;;29.60;15.80;;;;;;;4.81;80.88;99146.42;25045;1318;3055444;-65
2022/04/07 04:02:12;;;;;;;28.90;17.80;;;;;;;5.09;79.92;99137.09;25129;1318;3026820;-66
2022/04/07 04:04:42;;;;;;;28.40;16.80;;;;;;;5.01;79.82;99146.80;25001;1316;3051402;-66
2022/04/07 04:07:11;;;;;;;25.80;17.60;;;;;;;4.77;80.84;99153.20;25096;1318;3026842;-64
2022/04/07 04:10:01;;;;;;;33.10;17.70;;;;;;;4.54;81.93;99153.11;25030;1318;3057548;-64
2022/04/07 04:12:30;;;;;;;20.90;14.00;;;;;;;4.92;81.17;99144.42;25045;1318;3026772;-63
2022/04/07 04:15:01;;;;;;;27.00;15.60;;;;;;;5.03;80.38;99143.77;25050;1318;3026216;-68
2022/04/07 04:17:30;;;;;;;30.30;18.70;;;;;;;5.25;79.77;99139.52;25037;1318;3056149;-67
2022/04/07 04:20:00;;;;;;;35.50;19.40;;;;;;;5.24;79.77;99143.91;25091;1317;3026434;-68
2022/04/07 04:22:32;;;;;;;30.70;18.00;;;;;;;5.17;80.25;99146.83;25053;1318;3026492;-70
2022/04/07 04:25:03;;;;;;;33.20;18.40;;;;;;;4.94;81.03;99151.29;25117;1318;3026625;-66
2022/04/07 04:27:32;;;;;;;32.40;16.80;;;;;;;4.76;82.65;99146.64;25002;1318;3026793;-69
2022/04/07 04:30:01;;;;;;;40.60;19.50;;;;;;;5.24;81.39;99159.73;25058;1318;3027001;-67
2022/04/07 04:32:31;;;;;;;33.90;18.60;;;;;;;5.46;80.07;99155.42;25123;1317;3050696;-66
2022/04/07 04:35:00;;;;;;;38.70;19.90;;;;;;;5.34;80.37;99156.17;25044;1318;3026357;-67
2022/04/07 04:37:29;;;;;;;45.90;23.10;;;;;;;5.33;80.93;99151.31;25089;1318;3026868;-62
2022/04/07 04:39:58;;;;;;;41.30;22.40;;;;;;;5.24;81.38;99146.00;25103;1319;3054003;-68
2022/04/07 04:42:28;;;;;;;31.70;15.70;;;;;;;5.30;81.43;99159.27;25001;1317;3027126;-64
2022/04/07 04:44:57;;;;;;;28.60;14.30;;;;;;;5.72;80.19;99154.77;25059;1318;3026595;-63
2022/04/07 04:47:27;;;;;;;32.40;16.90;;;;;;;6.01;78.74;99144.31;25039;1318;3053090;-62
2022/04/07 04:49:57;;;;;;;36.60;20.20;;;;;;;5.91;79.03;99151.33;25070;1318;3026335;-67
2022/04/07 04:52:26;;;;;;;38.80;22.20;;;;;;;5.85;79.22;99143.79;25009;1318;3026247;-69
2022/04/07 04:54:55;;;;;;;39.90;22.70;;;;;;;5.84;79.43;99143.64;25048;1318;3053506;-66
2022/04/07 04:57:24;;;;;;;37.30;20.40;;;;;;;5.80;79.68;99143.50;25034;1316;3026489;-63
2022/04/07 04:59:53;;;;;;;34.30;16.20;;;;;;;5.86;79.92;99149.32;25043;1318;3055008;-68
2022/04/07 05:02:23;;;;;;;32.20;18.50;;;;;;;6.30;78.49;99136.98;25060;1318;3026467;-65
2022/04/07 05:04:52;;;;;;;50.70;24.40;;;;;;;6.54;76.91;99140.73;25003;1318;3026923;-69
2022/04/07 05:07:21;;;;;;;56.90;25.50;;;;;;;6.51;77.03;99136.52;25028;1318;3026686;-66
2022/04/07 05:09:55;;;;;;;66.40;26.90;;;;;;;6.55;76.93;99139.80;25052;1318;3053804;-65
2022/04/07 05:12:26;;;;;;;54.30;25.30;;;;;;;6.44;76.95;99143.45;25085;1318;3071048;-67
2022/04/07 05:14:58;;;;;;;64.40;26.50;;;;;;;6.43;77.21;99147.86;24999;1318;3026040;-66
2022/04/07 05:17:27;;;;;;;33.40;14.90;;;;;;;6.42;76.91;99144.61;25085;1318;3027007;-68
2022/04/07 05:20:00;;;;;;;33.30;17.40;;;;;;;6.96;74.97;99143.36;25028;1318;3070130;-67
2022/04/07 05:22:29;;;;;;;39.20;18.50;;;;;;;7.23;73.24;99145.45;25091;1318;3026789;-68
2022/04/07 05:24:59;;;;;;;40.30;20.90;;;;;;;7.24;73.33;99136.52;25079;1318;3027002;-66
2022/04/07 05:27:28;;;;;;;26.40;15.50;;;;;;;7.17;73.80;99138.77;25052;1318;3026747;-63
2022/04/07 05:30:00;;;;;;;29.10;16.10;;;;;;;7.04;74.36;99144.84;25108;1318;3026130;-68
2022/04/07 05:32:29;;;;;;;26.60;15.90;;;;;;;6.97;74.77;99142.08;25096;1318;3025987;-67
2022/04/07 05:35:00;;;;;;;25.10;15.70;;;;;;;6.82;75.25;99144.20;25027;1318;3027810;-69
2022/04/07 05:37:29;;;;;;;18.00;10.40;;;;;;;6.85;74.89;99147.02;25091;1318;3026851;-66
2022/04/07 05:40:00;;;;;;;23.00;12.50;;;;;;;7.41;73.51;99145.52;25084;1318;3026510;-68
2022/04/07 05:42:29;;;;;;;20.60;12.60;;;;;;;7.87;71.81;99139.81;25077;1316;3027481;-66
2022/04/07 05:44:58;;;;;;;23.10;13.90;;;;;;;7.95;71.06;99135.86;25031;1318;3052337;-66
2022/04/07 05:47:28;;;;;;;23.50;14.30;;;;;;;7.98;70.36;99137.95;25033;1318;3026978;-61
2022/04/07 05:49:57;;;;;;;24.50;13.70;;;;;;;7.92;70.59;99141.29;25089;1318;3026523;-63
2022/04/07 05:52:25;;;;;;;30.30;16.00;;;;;;;7.82;70.53;99137.80;25035;1318;3050246;-67
2022/04/07 05:54:56;;;;;;;21.20;13.20;;;;;;;7.67;70.58;99142.92;25067;1318;3027237;-68
2022/04/07 05:57:30;;;;;;;26.50;15.30;;;;;;;7.50;71.40;99143.65;25055;1315;3026624;-67
2022/04/07 06:00:04;;;;;;;26.20;12.90;;;;;;;7.46;71.50;99144.79;25083;1319;3050356;-65
2022/04/07 06:02:33;;;;;;;21.70;12.10;;;;;;;7.43;70.60;99150.85;25128;1318;3026545;-69
2022/04/07 06:05:04;;;;;;;35.40;15.30;;;;;;;7.47;70.14;99144.74;25063;1318;3026482;-65
2022/04/07 06:07:35;;;;;;;22.90;10.40;;;;;;;7.58;69.63;99142.39;25038;1319;3049444;-66
2022/04/07 06:10:05;;;;;;;22.80;10.60;;;;;;;8.17;67.84;99137.08;25001;1316;3026839;-67
2022/04/07 06:12:36;;;;;;;25.10;13.10;;;;;;;8.60;66.40;99138.86;24754;1318;3519377;-67
2022/04/07 06:15:06;;;;;;;23.90;13.00;;;;;;;8.71;66.20;99134.60;25085;1318;3026486;-68
2022/04/07 06:17:38;;;;;;;23.20;12.00;;;;;;;8.62;65.91;99141.23;25126;1319;3026391;-67
2022/04/07 06:20:10;;;;;;;40.20;17.40;;;;;;;8.53;66.44;99132.27;25095;1318;3027663;-68
2022/04/07 06:22:40;;;;;;;28.00;14.30;;;;;;;8.40;66.64;99132.84;25035;1317;3026903;-67
2022/04/07 06:25:12;;;;;;;21.00;12.70;;;;;;;8.64;66.14;99131.83;25126;1318;3027263;-69
2022/04/07 06:27:45;;;;;;;21.60;12.80;;;;;;;8.68;65.76;99133.89;25118;1316;3027273;-65
2022/04/07 06:30:16;;;;;;;17.40;11.30;;;;;;;8.60;65.47;99136.45;25095;1318;3026482;-67
2022/04/07 06:32:46;;;;;;;16.50;10.40;;;;;;;8.52;65.62;99140.92;25057;1318;3026682;-64
2022/04/07 06:35:15;;;;;;;16.40;10.50;;;;;;;8.48;65.77;99140.27;25068;1318;3027618;-67
2022/04/07 06:37:54;;;;;;;21.20;11.40;;;;;;;8.55;65.59;99132.91;25131;1315;3026534;-65
2022/04/07 06:40:27;;;;;;;17.50;10.30;;;;;;;8.74;65.27;99132.51;25110;1318;3056836;-68
2022/04/07 06:42:58;;;;;;;30.80;15.20;;;;;;;8.77;64.81;99130.07;25153;1318;3052504;-67
2022/04/07 06:45:28;;;;;;;25.70;13.10;;;;;;;8.84;64.94;99127.51;25163;1316;3026223;-68
2022/04/07 06:47:57;;;;;;;16.70;10.50;;;;;;;8.89;64.98;99132.33;25071;1316;3026579;-68
2022/04/07 06:50:27;;;;;;;21.00;12.10;;;;;;;8.90;65.24;99131.36;25088;1318;3028285;-63
2022/04/07 06:52:56;;;;;;;20.40;12.70;;;;;;;9.03;65.10;99130.96;25096;1318;3027024;-69
2022/04/07 06:55:26;;;;;;;23.20;11.70;;;;;;;9.26;64.00;99127.48;25136;1318;3051009;-67
2022/04/07 06:58:01;;;;;;;31.70;13.30;;;;;;;9.43;63.87;99122.84;25078;1318;3028277;-67
2022/04/07 07:00:32;;;;;;;14.60;10.20;;;;;;;9.56;63.28;99131.78;25082;1316;3053088;-67
2022/04/07 07:03:05;;;;;;;16.50;10.10;;;;;;;9.53;62.91;99130.04;25085;1316;3050754;-67
2022/04/07 07:05:35;;;;;;;15.40;9.30;;;;;;;9.61;62.27;99136.19;25058;1315;3027081;-65
2022/04/07 07:08:15;;;;;;;12.70;8.60;;;;;;;9.66;61.54;99136.27;25074;1315;3026301;-67
2022/04/07 07:11:04;;;;;;;19.30;10.60;;;;;;;9.74;61.69;99129.64;25088;1315;3052500;-67
2022/04/07 07:13:37;;;;;;;20.30;11.10;;;;;;;9.97;60.64;99126.12;25057;1316;3027917;-68
2022/04/07 07:16:07;;;;;;;17.60;8.50;;;;;;;10.07;59.03;99123.55;25097;1315;3026352;-69
2022/04/07 07:18:38;;;;;;;12.90;8.60;;;;;;;10.12;58.53;99129.88;25125;1315;3026780;-70
2022/04/07 07:21:08;;;;;;;11.70;7.50;;;;;;;10.14;57.14;99126.90;25168;1316;3054944;-64
2022/04/07 07:23:37;;;;;;;10.60;6.60;;;;;;;10.27;56.85;99125.95;25234;1315;3026029;-64
2022/04/07 07:26:06;;;;;;;14.00;7.80;;;;;;;10.40;56.66;99117.93;25481;1315;3026591;-63
2022/04/07 07:28:36;;;;;;;17.40;7.60;;;;;;;10.57;56.39;99126.65;25534;1315;3051951;-63
2022/04/07 07:31:16;;;;;;;13.30;7.00;;;;;;;10.70;55.75;99120.70;25268;1318;3057113;-67
2022/04/07 07:35:07;;;;;;;14.40;7.60;;;;;;;10.85;53.92;99123.00;31696;1313;3026305;-65
2022/04/07 07:37:36;;;;;;;16.60;9.20;;;;;;;11.07;53.03;99127.87;25153;1316;3026928;-66
2022/04/07 07:40:07;;;;;;;14.20;8.00;;;;;;;11.32;52.37;99117.74;25180;1316;3026566;-67
2022/04/07 07:42:36;;;;;;;20.70;8.50;;;;;;;11.38;52.40;99117.52;25129;1316;3026578;-67
2022/04/07 07:45:07;;;;;;;10.90;5.70;;;;;;;11.54;51.66;99112.91;25130;1315;3027319;-66
2022/04/07 07:47:36;;;;;;;9.50;5.70;;;;;;;11.69;50.86;99117.65;25026;1313;3205561;-69
2022/04/07 07:50:05;;;;;;;12.80;6.00;;;;;;;11.79;50.18;99113.80;25131;1313;3028151;-67
2022/04/07 07:52:34;;;;;;;13.50;5.70;;;;;;;11.65;48.90;99120.39;25113;1313;3053077;-71
2022/04/07 07:55:04;;;;;;;10.30;6.70;;;;;;;11.70;48.75;99108.61;25190;1313;3029357;-69
2022/04/07 07:57:34;;;;;;;11.90;6.20;;;;;;;11.79;48.51;99112.71;25189;1313;3058860;-68
2022/04/07 08:00:05;;;;;;;16.40;6.50;;;;;;;11.82;48.07;99104.42;25113;1313;3026919;-67
2022/04/07 08:02:35;;;;;;;12.60;5.30;;;;;;;11.91;47.46;99102.02;25133;1313;3053049;-65
2022/04/07 08:05:05;;;;;;;10.40;5.20;;;;;;;11.93;46.85;99101.19;25193;1313;3026016;-68
2022/04/07 08:07:42;;;;;;;12.60;5.50;;;;;;;12.07;46.85;99098.95;25121;1315;3052558;-68
2022/04/07 08:10:11;;;;;;;8.70;4.80;;;;;;;12.33;46.58;99090.64;25170;1313;3052145;-68
2022/04/07 08:12:51;;;;;;;10.90;4.30;;;;;;;12.49;45.18;99086.96;25158;1313;3055024;-68
2022/04/07 08:15:21;;;;;;;15.10;5.50;;;;;;;12.43;44.67;99086.33;25136;1313;3026507;-67
2022/04/07 08:17:51;;;;;;;20.00;7.40;;;;;;;12.47;45.11;99086.04;25156;1313;3052502;-68
2022/04/07 08:20:20;;;;;;;17.30;6.90;;;;;;;12.76;44.85;99078.64;25200;1316;3027136;-71
2022/04/07 08:22:49;;;;;;;26.50;10.00;;;;;;;12.80;44.58;99074.66;25120;1313;3026757;-68
2022/04/07 08:25:18;;;;;;;30.60;8.60;;;;;;;12.93;44.41;99077.49;25211;1313;3054562;-69
2022/04/07 08:27:48;;;;;;;13.20;5.80;;;;;;;12.85;44.33;99073.16;25201;1313;3026595;-66
2022/04/07 08:30:17;;;;;;;12.80;5.10;;;;;;;12.90;44.28;99063.88;25140;1313;3026631;-66
2022/04/07 08:32:46;;;;;;;12.00;4.30;;;;;;;13.06;43.89;99058.05;25178;1313;3051935;-69
2022/04/07 08:35:15;;;;;;;9.00;4.00;;;;;;;13.17;43.33;99046.98;25134;1313;3026712;-66
2022/04/07 08:37:44;;;;;;;9.80;4.50;;;;;;;13.25;43.19;99049.53;25194;1313;3051791;-66
2022/04/07 08:40:13;;;;;;;9.20;4.10;;;;;;;13.28;43.26;99047.70;25100;1313;3026387;-65
2022/04/07 08:42:42;;;;;;;6.80;4.20;;;;;;;13.39;43.03;99035.28;25093;1313;3026926;-70
2022/04/07 08:45:11;;;;;;;7.90;4.20;;;;;;;13.53;42.33;99027.11;25157;1313;3026669;-69
2022/04/07 08:47:41;;;;;;;8.40;4.00;;;;;;;13.60;42.06;99024.11;25202;1313;3055563;-68
2022/04/07 08:50:11;;;;;;;7.70;3.70;;;;;;;13.63;41.44;99032.53;25125;1313;3027050;-67
2022/04/07 08:52:41;;;;;;;7.30;3.60;;;;;;;13.59;41.63;99032.83;25085;1313;3026479;-69
2022/04/07 08:55:11;;;;;;;8.10;4.00;;;;;;;13.77;41.35;99022.09;25196;1312;3027128;-68
2022/04/07 08:57:40;;;;;;;8.40;4.10;;;;;;;13.83;40.90;99029.04;25157;1313;3026478;-68
2022/04/07 09:00:11;;;;;;;7.00;3.70;;;;;;;14.01;40.57;99016.92;25140;1313;3051466;-68
2022/04/07 09:02:40;;;;;;;5.50;3.20;;;;;;;14.27;39.45;99018.20;25134;1313;3027990;-65
2022/04/07 09:05:10;;;;;;;5.90;3.60;;;;;;;14.17;38.79;99024.80;25181;1313;3026928;-71
2022/04/07 09:07:39;;;;;;;16.50;5.20;;;;;;;14.04;38.16;99020.03;25191;1313;3052201;-70
2022/04/07 09:10:12;;;;;;;12.00;3.70;;;;;;;13.97;37.46;99011.65;25169;1313;3026280;-69
2022/04/07 09:12:42;;;;;;;6.60;3.30;;;;;;;13.95;37.43;99006.50;25131;1313;3027289;-70
2022/04/07 09:15:31;;;;;;;10.10;2.90;;;;;;;13.98;37.47;99000.84;25117;1313;3068674;-69
2022/04/07 09:18:01;;;;;;;10.60;3.00;;;;;;;14.02;37.84;99002.30;25185;1312;3026875;-68
2022/04/07 09:20:31;;;;;;;6.00;3.40;;;;;;;14.14;37.92;98992.96;25143;1313;3026081;-68
2022/04/07 09:23:01;;;;;;;8.50;3.20;;;;;;;14.27;36.92;98989.12;25160;1313;3026657;-67
2022/04/07 09:25:49;;;;;;;5.90;3.10;;;;;;;14.45;35.96;98983.74;25154;1313;3049291;-67
2022/04/07 09:28:27;;;;;;;6.20;2.90;;;;;;;14.55;35.35;98976.86;25138;1313;3027057;-65
2022/04/07 09:30:57;;;;;;;8.20;3.40;;;;;;;14.74;34.66;98985.92;25193;1313;3053957;-67
2022/04/07 09:33:27;;;;;;;4.80;2.70;;;;;;;14.50;34.27;98987.03;25156;1313;3026631;-67
2022/04/07 09:36:21;;;;;;;8.50;3.20;;;;;;;14.58;34.33;98971.00;25094;1313;3027056;-67
2022/04/07 09:38:52;;;;;;;6.40;2.90;;;;;;;14.60;33.84;98973.10;25129;1313;3055536;-68
2022/04/07 09:41:22;;;;;;;6.50;2.90;;;;;;;14.70;33.89;98966.10;25202;1313;3026875;-67
2022/04/07 09:43:58;;;;;;;11.80;4.00;;;;;;;15.04;34.01;98949.14;25167;1315;3026742;-69
2022/04/07 09:46:35;;;;;;;7.50;2.60;;;;;;;15.09;33.43;98950.98;25180;1313;3052116;-64
2022/04/07 09:49:09;;;;;;;4.50;2.70;;;;;;;14.98;33.40;98950.83;25112;1313;3054756;-68
2022/04/07 09:51:45;;;;;;;;;;;;;;;15.18;33.81;98950.75;25147;1313;3053005;-65
2022/04/07 09:54:16;;;;;;;5.40;2.40;;;;;;;15.19;34.04;98939.66;25079;1313;3056493;-68
2022/04/07 09:56:46;;;;;;;6.80;3.40;;;;;;;15.26;33.62;98936.57;25146;1313;3026763;-66
2022/04/07 09:59:17;;;;;;;4.60;2.70;;;;;;;15.24;33.92;98927.82;25166;1313;3026539;-65
2022/04/07 10:01:49;;;;;;;7.30;3.00;;;;;;;15.38;33.93;98928.13;25110;1313;3026967;-66
2022/04/07 10:04:20;;;;;;;10.10;3.20;;;;;;;15.64;33.67;98926.55;25158;1313;3026626;-69
2022/04/07 10:06:50;;;;;;;5.70;2.90;;;;;;;15.77;33.00;98924.64;25166;1313;3029029;-69
2022/04/07 10:09:19;;;;;;;5.50;3.10;;;;;;;16.07;33.25;98912.73;25164;1313;3029976;-68
2022/04/07 10:11:48;;;;;;;8.70;3.20;;;;;;;16.34;33.02;98909.19;25144;1313;3026687;-68
2022/04/07 10:14:21;;;;;;;7.60;2.80;;;;;;;16.36;32.17;98904.08;25146;1313;3051513;-67
2022/04/07 10:16:50;;;;;;;5.40;3.00;;;;;;;16.33;32.18;98902.11;25143;1313;3026607;-65
2022/04/07 10:19:38;;;;;;;5.20;2.30;;;;;;;16.23;32.10;98903.85;25159;1313;3055603;-66
2022/04/07 10:22:39;;;;;;;8.00;3.00;;;;;;;16.10;32.44;98896.80;25124;1312;3059318;-65
2022/04/07 10:25:08;;;;;;;6.30;3.30;;;;;;;16.21;32.50;98891.05;25131;1313;3050194;-66
2022/04/07 10:27:45;;;;;;;7.40;3.20;;;;;;;16.40;32.57;98890.48;25186;1313;3026705;-68
2022/04/07 10:30:16;;;;;;;3.30;2.40;;;;;;;16.27;32.48;98892.86;25190;1315;3056778;-67
2022/04/07 10:32:53;;;;;;;9.60;2.90;;;;;;;16.00;32.53;98898.92;25129;1316;3026503;-67
2022/04/07 10:35:40;;;;;;;7.00;3.00;;;;;;;16.29;32.28;98888.64;25089;1315;3053930;-67
2022/04/07 10:38:10;;;;;;;6.40;3.00;;;;;;;16.34;33.47;98880.39;25116;1315;3049439;-67
2022/04/07 10:40:49;;;;;;;10.60;2.90;;;;;;;16.63;33.28;98872.06;25055;1316;3028862;-65
2022/04/07 10:43:22;;;;;;;7.60;3.20;;;;;;;16.61;32.95;98860.57;25116;1316;3051775;-64
2022/04/07 10:46:16;;;;;;;10.10;3.20;;;;;;;16.75;32.72;98863.48;25045;1315;3052486;-67
2022/04/07 10:48:50;;;;;;;10.80;3.20;;;;;;;16.70;32.29;98860.39;25069;1315;3055003;-67
2022/04/07 10:51:39;;;;;;;8.90;3.40;;;;;;;16.66;31.52;98868.38;25143;1315;3057156;-66
2022/04/07 10:54:08;;;;;;;4.70;3.00;;;;;;;16.68;31.65;98860.95;25036;1316;3052911;-64
2022/04/07 10:56:41;;;;;;;3.50;2.60;;;;;;;16.76;32.17;98858.25;25045;1316;3026368;-65
2022/04/07 10:59:21;;;;;;;4.10;2.30;;;;;;;16.71;30.91;98858.19;25074;1316;3028115;-64
2022/04/07 11:02:10;;;;;;;5.10;3.00;;;;;;;16.76;31.09;98848.31;25064;1316;3071432;-63
2022/04/07 11:05:08;;;;;;;9.80;3.10;;;;;;;17.13;31.76;98847.31;25050;1316;3051498;-65
2022/04/07 11:07:51;;;;;;;4.60;2.70;;;;;;;17.37;32.00;98845.13;25173;1315;3055220;-66
2022/04/07 11:10:45;;;;;;;5.80;2.60;;;;;;;17.55;32.15;98843.33;25105;1316;3053140;-66
2022/04/07 11:13:45;;;;;;;5.70;2.60;;;;;;;17.58;32.34;98832.20;25022;1315;3056486;-66
2022/04/07 11:16:28;;;;;;;5.40;2.70;;;;;;;17.56;32.32;98826.21;25149;1316;3049840;-65
2022/04/07 11:19:08;;;;;;;5.40;3.00;;;;;;;17.71;32.22;98824.40;25125;1316;3053325;-64
2022/04/07 11:21:50;;;;;;;4.50;2.50;;;;;;;17.59;32.47;98819.05;25108;1315;3050986;-67
2022/04/07 11:24:29;;;;;;;5.40;2.90;;;;;;;17.43;32.80;98810.73;25082;1315;3071282;-66
2022/04/07 11:27:34;;;;;;;5.10;2.90;;;;;;;17.24;33.24;98815.75;25162;1316;3048977;-66
2022/04/07 11:30:11;;;;;;;6.70;3.00;;;;;;;17.39;33.26;98803.39;25413;1316;3053192;-62
2022/04/07 11:33:18;;;;;;;6.30;2.90;;;;;;;17.68;33.29;98790.51;25456;1315;3056268;-64
2022/04/07 11:36:11;;;;;;;5.10;3.00;;;;;;;17.89;33.18;98793.17;25333;1316;3057578;-66